Accueil
METAR-TAF:

METAR-TAF

Aéroports :

Koné, Nouvelle-Calédonie

Aérodrome de Koné

latitude: 21-03-12S, longitude: 164-50-18E, altitude: 7 m

METAR: absent

Heure: 11:52 (00:52 UTC)

Prévision

Le bulletin a été fait il y a 1 heure et 52 minutes, à 23:00 UTC
Prévision valable du 24 à 00 UTC au 24 à 24 UTC
Vent 9 kt de est/nord-est
Visibilité 10 km ou plus
Nuages épars à une hauteur de 3000 ft
Nuages fragmentés à une hauteur de 12000 ft
Temporairement
du 24 à 12 UTC au 24 à 24 UTC
Visibilité: 4000 m
Quelques nuages à une hauteur de 2000 ft, Cumulonimbus.
averses de pluie
Probabilité 40% :
Temporairement
du 24 à 12 UTC au 24 à 20 UTC
Visibilité: 2000 m
Nuages fragmentés à une hauteur de 1400 ft
Nuages épars à une hauteur de 1800 ft, Cumulonimbus.
orage, pluie

TAF: NWWD 232300Z 2400/2424 07009KT 9999 SCT030 BKN120 TEMPO 2412/2424 4000 SHRA FEW020CB PROB40 TEMPO 2412/2420 2000 TSRA BKN014 SCT018CB

Observations et prévisions météorologiques de plus de 4000 aéroports (messages METAR et TAF).

Les stations disponibles sont représentées par des disques jaunes et rouges sur la carte.

Passer la souris dessus pour voir le nom de la station.

Cliquer dessus pour voir les observations et prévisions météorologiques.

Pour changer de carte: cliquez sur les boutons verts avec une croix noire pour zoomer, sur le bouton vert avec un tiret pour effectuer un zoom arrière, ou sur les flèches vertes pour les cartes adjacentes.


METAR-TAF: